Time;durP1;ratioP1;P1;durP2;ratioP2;P2;SDS_P1;SDS_P2;PMS_P1;PMS_P2;Temp;Humidity;BMP_temperature;BMP_pressure;BME280_temperature;BME280_humidity;BME280_pressure;Samples;Min_cycle;Max_cycle;Signal;HPM_P1;HPM_P2
2022/02/27 00:00:31;;;;;;;2.47;2.27;;;1.20;99.90;;;;;;5100740;28;20223;-44
2022/02/27 00:02:59;;;;;;;2.27;2.07;;;1.20;99.90;;;;;;5082469;28;20208;-44
2022/02/27 00:05:25;;;;;;;2.63;2.40;;;1.20;99.90;;;;;;5100998;28;20199;-42
2022/02/27 00:07:53;;;;;;;3.27;2.70;;;1.10;99.90;;;;;;5098701;28;20204;-43
2022/02/27 00:10:21;;;;;;;4.87;2.53;;;1.10;99.90;;;;;;5091836;27;22733;-42
2022/02/27 00:12:49;;;;;;;3.63;3.20;;;1.10;99.90;;;;;;5104564;28;20201;-42
2022/02/27 00:15:16;;;;;;;4.60;2.83;;;1.10;99.90;;;;;;5089186;28;20201;-46
2022/02/27 00:17:43;;;;;;;3.43;3.03;;;1.00;99.90;;;;;;5099239;28;20555;-43
2022/02/27 00:20:12;;;;;;;3.13;2.83;;;1.00;99.90;;;;;;5088332;28;20232;-42
2022/02/27 00:22:39;;;;;;;3.73;2.23;;;1.00;99.90;;;;;;5102693;28;20337;-42
2022/02/27 00:25:09;;;;;;;3.60;2.70;;;0.90;99.90;;;;;;5098127;28;20665;-45
2022/02/27 00:27:37;;;;;;;6.33;2.83;;;0.90;99.90;;;;;;5097560;28;20216;-43
2022/02/27 00:30:06;;;;;;;3.73;2.63;;;0.90;99.90;;;;;;5094952;28;20232;-43
2022/02/27 00:32:33;;;;;;;4.60;2.77;;;0.80;99.90;;;;;;5100609;28;20684;-44
2022/02/27 00:35:00;;;;;;;5.57;3.10;;;0.90;99.90;;;;;;5089755;28;20536;-44
2022/02/27 00:37:27;;;;;;;3.90;3.17;;;0.80;99.90;;;;;;5099055;28;20277;-45
2022/02/27 00:39:54;;;;;;;5.70;3.03;;;0.80;99.90;;;;;;5089992;28;20681;-42
2022/02/27 00:42:22;;;;;;;4.33;2.90;;;0.80;99.90;;;;;;5092670;28;20263;-45
2022/02/27 00:44:52;;;;;;;4.07;2.53;;;0.70;99.90;;;;;;5104409;27;20227;-44
2022/02/27 00:47:21;;;;;;;3.97;2.50;;;0.70;99.90;;;;;;5094004;28;20905;-44
2022/02/27 00:49:48;;;;;;;4.67;2.80;;;0.70;99.90;;;;;;5083945;28;20684;-43
2022/02/27 00:52:18;;;;;;;5.27;3.13;;;0.70;99.90;;;;;;5093596;28;20936;-42
2022/02/27 00:54:45;;;;;;;3.77;2.90;;;0.70;99.90;;;;;;5100865;28;20208;-43
2022/02/27 00:57:12;;;;;;;4.10;2.90;;;0.70;99.90;;;;;;5098691;28;20204;-45
2022/02/27 00:59:44;;;;;;;3.13;2.23;;;0.70;99.90;;;;;;5095617;28;20209;-43
2022/02/27 01:02:11;;;;;;;2.70;2.27;;;0.60;99.90;;;;;;5092409;28;20229;-44
2022/02/27 01:04:37;;;;;;;3.47;2.77;;;0.60;99.90;;;;;;5089481;28;20782;-45
2022/02/27 01:07:05;;;;;;;3.90;2.23;;;0.60;99.90;;;;;;5098792;28;20199;-44
2022/02/27 01:09:32;;;;;;;4.03;2.57;;;0.60;99.90;;;;;;5101129;28;20203;-43
2022/02/27 01:11:59;;;;;;;3.40;2.47;;;0.50;99.90;;;;;;5102043;28;20615;-45
2022/02/27 01:14:26;;;;;;;5.93;2.37;;;0.50;99.90;;;;;;5095294;28;20200;-45
2022/02/27 01:16:56;;;;;;;4.07;2.73;;;0.50;99.90;;;;;;5093426;28;20215;-47
2022/02/27 01:19:23;;;;;;;5.73;2.63;;;0.50;99.90;;;;;;5076973;28;20812;-43
2022/02/27 01:21:50;;;;;;;3.90;2.70;;;0.40;99.90;;;;;;5095805;28;20669;-43
2022/02/27 01:24:16;;;;;;;4.43;2.30;;;0.40;99.90;;;;;;5097172;28;20267;-43
2022/02/27 01:26:43;;;;;;;4.57;2.70;;;0.50;99.90;;;;;;5103717;28;20195;-43
2022/02/27 01:29:10;;;;;;;4.27;2.57;;;0.50;99.90;;;;;;5087173;28;20660;-43
2022/02/27 01:31:37;;;;;;;3.53;2.67;;;0.50;99.90;;;;;;5102371;28;20228;-44
2022/02/27 01:34:06;;;;;;;5.40;3.27;;;0.50;99.90;;;;;;5086820;28;20559;-46
2022/02/27 01:36:33;;;;;;;6.73;2.43;;;0.50;99.90;;;;;;5089760;28;20715;-43
2022/02/27 01:39:00;;;;;;;4.40;2.60;;;0.40;99.90;;;;;;5096391;28;20211;-43
2022/02/27 01:41:26;;;;;;;5.53;2.90;;;0.40;99.90;;;;;;5093968;28;20212;-45
2022/02/27 01:43:53;;;;;;;3.67;2.47;;;0.50;99.90;;;;;;5098916;28;20287;-45
2022/02/27 01:46:20;;;;;;;6.20;2.97;;;0.40;99.90;;;;;;5093205;28;20972;-46
2022/02/27 01:48:47;;;;;;;3.53;2.90;;;0.40;99.90;;;;;;5096289;28;20192;-44
2022/02/27 01:51:16;;;;;;;6.37;2.97;;;0.40;99.90;;;;;;5082830;28;20314;-44
2022/02/27 01:53:45;;;;;;;5.93;3.47;;;0.40;99.90;;;;;;5100837;28;20209;-45
2022/02/27 01:56:13;;;;;;;4.87;3.10;;;0.40;99.90;;;;;;5089693;28;20196;-45
2022/02/27 01:58:40;;;;;;;3.77;2.87;;;0.40;99.90;;;;;;5100778;28;20188;-44
2022/02/27 02:01:07;;;;;;;4.47;2.87;;;0.40;99.90;;;;;;5093110;28;20233;-44
2022/02/27 02:03:33;;;;;;;5.10;2.80;;;0.40;99.90;;;;;;5089950;28;20295;-44
2022/02/27 02:06:03;;;;;;;3.97;2.47;;;0.40;99.90;;;;;;5093326;28;20212;-45
2022/02/27 02:08:32;;;;;;;5.27;2.63;;;0.50;99.90;;;;;;5094744;28;20291;-46
2022/02/27 02:11:02;;;;;;;3.93;2.67;;;0.50;99.90;;;;;;5097324;28;20266;-46
2022/02/27 02:13:30;;;;;;;4.50;3.13;;;0.50;99.90;;;;;;5097886;28;20200;-43
2022/02/27 02:15:58;;;;;;;4.73;2.60;;;0.50;99.90;;;;;;5088565;28;20691;-43
2022/02/27 02:18:32;;;;;;;3.03;2.73;;;0.50;99.90;;;;;;5099073;28;20200;-44
2022/02/27 02:21:01;;;;;;;5.70;2.47;;;0.50;99.90;;;;;;5086023;28;20228;-46
2022/02/27 02:23:27;;;;;;;2.93;2.60;;;0.50;99.90;;;;;;5088130;28;20333;-43
2022/02/27 02:25:55;;;;;;;4.77;2.60;;;0.50;99.90;;;;;;5100156;28;20286;-44
2022/02/27 02:28:22;;;;;;;5.33;2.70;;;0.50;99.90;;;;;;5091820;28;20229;-44
2022/02/27 02:30:49;;;;;;;5.70;2.53;;;0.50;99.90;;;;;;5094441;28;20227;-43
2022/02/27 02:33:16;;;;;;;7.43;2.63;;;0.50;99.90;;;;;;5095698;28;20206;-43
2022/02/27 02:35:45;;;;;;;5.70;2.37;;;0.50;99.90;;;;;;5092648;28;20260;-43
2022/02/27 02:38:13;;;;;;;3.73;2.10;;;0.50;99.90;;;;;;5085780;28;20234;-45
2022/02/27 02:40:40;;;;;;;5.40;2.60;;;0.50;99.90;;;;;;5099377;28;20575;-43
2022/02/27 02:43:07;;;;;;;7.00;2.97;;;0.50;99.90;;;;;;5090027;28;20222;-44
2022/02/27 02:45:34;;;;;;;3.07;2.27;;;0.50;99.90;;;;;;5092356;28;20191;-45
2022/02/27 02:48:01;;;;;;;4.50;2.43;;;0.50;99.90;;;;;;5085920;28;20208;-46
2022/02/27 02:50:30;;;;;;;3.17;2.30;;;0.50;99.90;;;;;;5091904;28;20348;-47
2022/02/27 02:52:57;;;;;;;3.67;2.30;;;0.50;99.90;;;;;;5081520;28;20317;-45
2022/02/27 02:55:25;;;;;;;3.83;2.17;;;0.50;99.90;;;;;;5098210;28;20187;-44
2022/02/27 02:57:53;;;;;;;3.10;2.50;;;0.50;99.90;;;;;;5102527;28;20207;-45
2022/02/27 03:00:20;;;;;;;5.53;2.43;;;0.50;99.90;;;;;;5099528;28;20426;-46
2022/02/27 03:02:47;;;;;;;3.47;2.17;;;0.50;99.90;;;;;;5095687;28;20592;-46
2022/02/27 03:05:14;;;;;;;4.83;2.90;;;0.50;99.90;;;;;;5091250;28;20211;-46
2022/02/27 03:07:42;;;;;;;3.27;2.40;;;0.50;99.90;;;;;;5101668;28;20216;-45
2022/02/27 03:10:11;;;;;;;4.57;2.80;;;0.50;99.90;;;;;;5086812;28;20228;-45
2022/02/27 03:12:39;;;;;;;4.70;2.53;;;0.50;99.90;;;;;;5106150;28;20200;-44
2022/02/27 03:15:08;;;;;;;6.00;2.80;;;0.50;99.90;;;;;;5093958;28;20224;-43
2022/02/27 03:17:35;;;;;;;5.17;2.47;;;0.50;99.90;;;;;;5097102;28;20197;-46
2022/02/27 03:20:02;;;;;;;4.37;2.53;;;0.50;99.90;;;;;;5100968;28;20700;-43
2022/02/27 03:22:29;;;;;;;2.47;2.27;;;0.40;99.90;;;;;;5096218;28;20211;-45
2022/02/27 03:24:56;;;;;;;4.97;2.37;;;0.40;99.90;;;;;;5092805;28;20217;-44
2022/02/27 03:27:23;;;;;;;3.17;1.97;;;0.40;99.90;;;;;;5101251;28;20194;-44
2022/02/27 03:29:51;;;;;;;5.70;1.80;;;0.40;99.90;;;;;;5105398;28;20223;-46
2022/02/27 03:32:18;;;;;;;2.50;2.30;;;0.40;99.90;;;;;;5095860;28;20950;-43
2022/02/27 03:34:45;;;;;;;5.47;2.30;;;0.30;99.90;;;;;;5105042;28;20196;-43
2022/02/27 03:37:12;;;;;;;4.07;2.10;;;0.30;99.90;;;;;;5093690;28;20204;-45
2022/02/27 03:39:39;;;;;;;3.43;2.20;;;0.30;99.90;;;;;;5090261;28;20224;-43
2022/02/27 03:42:06;;;;;;;2.20;1.97;;;0.30;99.90;;;;;;5102380;28;20250;-44
2022/02/27 03:44:33;;;;;;;3.90;2.30;;;0.30;99.90;;;;;;5097796;28;20206;-44
2022/02/27 03:47:01;;;;;;;6.87;2.87;;;0.30;99.90;;;;;;5103713;28;20206;-46
2022/02/27 03:49:28;;;;;;;2.67;1.97;;;0.30;99.90;;;;;;5089666;28;20279;-49
2022/02/27 03:51:54;;;;;;;6.13;2.30;;;0.30;99.90;;;;;;5103576;28;20215;-43
2022/02/27 03:54:21;;;;;;;3.40;2.00;;;0.20;99.90;;;;;;5084084;28;20513;-44
2022/02/27 03:56:50;;;;;;;4.30;2.00;;;0.20;99.90;;;;;;5102230;28;20199;-43
2022/02/27 03:59:17;;;;;;;2.93;1.97;;;0.20;99.90;;;;;;5095264;28;20294;-46
2022/02/27 04:01:44;;;;;;;8.40;2.70;;;0.20;99.90;;;;;;5103821;28;20223;-43
2022/02/27 04:04:13;;;;;;;2.67;2.27;;;0.20;99.90;;;;;;5094412;28;20211;-48
2022/02/27 04:06:39;;;;;;;2.30;1.80;;;0.10;99.90;;;;;;5103307;28;20211;-42
2022/02/27 04:09:06;;;;;;;4.73;2.40;;;0.10;99.90;;;;;;5092138;28;20204;-44
2022/02/27 04:11:34;;;;;;;2.30;2.10;;;0.10;99.90;;;;;;5091738;28;20220;-43
2022/02/27 04:14:01;;;;;;;6.30;2.23;;;0.00;99.90;;;;;;5103198;28;20200;-42
2022/02/27 04:16:27;;;;;;;2.70;1.93;;;0.10;99.90;;;;;;5102342;28;20187;-42
2022/02/27 04:18:54;;;;;;;3.23;1.83;;;0.10;99.90;;;;;;5098951;28;20202;-42
2022/02/27 04:21:23;;;;;;;4.97;2.30;;;0.10;99.90;;;;;;5093789;28;20315;-46
2022/02/27 04:23:49;;;;;;;5.93;2.33;;;0.10;99.90;;;;;;5095160;28;20227;-43
2022/02/27 04:26:16;;;;;;;4.60;2.43;;;0.10;99.90;;;;;;5087913;28;21158;-45
2022/02/27 04:28:43;;;;;;;4.23;2.10;;;0.00;99.90;;;;;;5098058;28;20738;-43
2022/02/27 04:31:10;;;;;;;3.50;2.17;;;0.00;99.90;;;;;;5099240;28;20223;-43
2022/02/27 04:33:37;;;;;;;6.80;2.97;;;0.00;99.90;;;;;;5104156;28;20191;-42
2022/02/27 04:36:04;;;;;;;3.23;2.30;;;0.00;99.90;;;;;;5095388;28;20210;-45
2022/02/27 04:38:33;;;;;;;3.53;2.23;;;0.00;99.90;;;;;;5095059;28;20385;-42
2022/02/27 04:40:59;;;;;;;5.77;2.90;;;0.00;99.90;;;;;;5101645;28;20953;-42
2022/02/27 04:43:26;;;;;;;3.23;2.03;;;0.00;99.90;;;;;;5086970;28;20212;-42
2022/02/27 04:45:53;;;;;;;6.07;2.30;;;0.00;99.90;;;;;;5099685;28;20687;-42
2022/02/27 04:48:20;;;;;;;5.43;2.30;;;0.00;99.90;;;;;;5097157;28;20186;-44
2022/02/27 04:50:47;;;;;;;7.20;2.20;;;-0.10;99.90;;;;;;5102701;28;20219;-45
2022/02/27 04:53:14;;;;;;;2.87;2.27;;;-0.10;99.90;;;;;;5089291;28;20199;-45
2022/02/27 04:55:42;;;;;;;3.90;2.10;;;-0.10;99.90;;;;;;5095077;28;20218;-45
2022/02/27 04:58:10;;;;;;;5.63;2.23;;;-0.10;99.90;;;;;;5089449;28;20223;-44
2022/02/27 05:00:37;;;;;;;3.33;1.87;;;-0.20;99.90;;;;;;5102779;28;20215;-46
2022/02/27 05:03:03;;;;;;;5.33;2.10;;;-0.20;99.90;;;;;;5098223;28;20212;-45
2022/02/27 05:05:30;;;;;;;3.43;2.20;;;-0.20;99.90;;;;;;5102396;28;20196;-43
2022/02/27 05:07:57;;;;;;;5.93;2.13;;;-0.20;99.90;;;;;;5096043;28;20668;-44
2022/02/27 05:10:24;;;;;;;2.73;2.10;;;-0.20;99.90;;;;;;5087264;28;20223;-46
2022/02/27 05:12:52;;;;;;;4.20;2.60;;;-0.20;99.90;;;;;;5097202;28;20275;-45
2022/02/27 05:15:19;;;;;;;2.33;2.10;;;-0.20;99.90;;;;;;5087381;28;20212;-45
2022/02/27 05:17:46;;;;;;;2.80;2.10;;;-0.30;99.90;;;;;;5098006;28;20199;-45
2022/02/27 05:20:16;;;;;;;2.37;2.10;;;-0.30;99.90;;;;;;5099165;28;20214;-48
2022/02/27 05:22:44;;;;;;;3.20;2.00;;;-0.30;99.90;;;;;;5092360;28;20222;-46
2022/02/27 05:25:12;;;;;;;4.30;2.20;;;-0.30;99.90;;;;;;5090780;28;20198;-45
2022/02/27 05:27:39;;;;;;;5.20;2.43;;;-0.30;99.90;;;;;;5100222;28;20699;-45
2022/02/27 05:30:08;;;;;;;5.63;2.47;;;-0.40;99.90;;;;;;5087775;28;20252;-44
2022/02/27 05:32:35;;;;;;;5.63;2.03;;;-0.40;99.90;;;;;;5100392;28;20187;-43
2022/02/27 05:35:02;;;;;;;3.77;2.37;;;-0.40;99.90;;;;;;5097110;28;20205;-44
2022/02/27 05:37:29;;;;;;;6.93;2.03;;;-0.40;99.90;;;;;;5090262;28;20206;-47
2022/02/27 05:39:56;;;;;;;3.17;2.10;;;-0.40;99.90;;;;;;5097988;28;20284;-43
2022/02/27 05:42:23;;;;;;;4.90;2.57;;;-0.50;99.90;;;;;;5089413;28;20891;-46
2022/02/27 05:44:50;;;;;;;4.77;2.27;;;-0.40;99.90;;;;;;5101471;28;20209;-43
2022/02/27 05:47:18;;;;;;;3.50;1.60;;;-0.40;99.90;;;;;;5082546;28;20278;-45
2022/02/27 05:49:45;;;;;;;4.40;2.40;;;-0.40;99.90;;;;;;5095673;28;20210;-44
2022/02/27 05:52:12;;;;;;;4.13;2.10;;;-0.50;99.90;;;;;;5093250;28;20838;-42
2022/02/27 05:54:40;;;;;;;4.83;2.77;;;-0.50;99.90;;;;;;5090778;28;20204;-46
2022/02/27 05:57:06;;;;;;;4.33;2.43;;;-0.50;99.90;;;;;;5088364;28;20197;-44
2022/02/27 05:59:33;;;;;;;3.27;2.13;;;-0.50;99.90;;;;;;5093318;28;20878;-42
2022/02/27 06:02:00;;;;;;;4.20;2.27;;;-0.50;99.90;;;;;;5083078;28;20228;-43
2022/02/27 06:04:28;;;;;;;3.27;2.30;;;-0.50;99.90;;;;;;5090162;28;20660;-43
2022/02/27 06:06:54;;;;;;;5.13;2.53;;;-0.50;99.90;;;;;;5096626;28;20205;-43
2022/02/27 06:09:21;;;;;;;5.00;2.83;;;-0.50;99.90;;;;;;5095067;28;20207;-44
2022/02/27 06:11:48;;;;;;;3.77;2.13;;;-0.50;99.90;;;;;;5093053;28;20213;-45
2022/02/27 06:14:16;;;;;;;4.23;2.80;;;-0.50;99.90;;;;;;5101734;28;20290;-45
2022/02/27 06:16:42;;;;;;;5.00;2.70;;;-0.50;99.90;;;;;;5083823;28;20190;-44
2022/02/27 06:19:09;;;;;;;3.00;2.40;;;-0.50;99.90;;;;;;5090811;28;20205;-44
2022/02/27 06:21:38;;;;;;;3.80;2.73;;;-0.50;99.90;;;;;;5097280;28;20219;-45
2022/02/27 06:24:06;;;;;;;4.80;2.50;;;-0.50;99.90;;;;;;5085560;28;20222;-44
2022/02/27 06:26:34;;;;;;;3.73;2.30;;;-0.50;99.90;;;;;;5094917;28;20209;-44
2022/02/27 06:29:02;;;;;;;7.33;2.30;;;-0.50;99.90;;;;;;5098970;28;20310;-43
2022/02/27 06:31:30;;;;;;;3.90;2.07;;;-0.50;99.90;;;;;;5101925;28;20233;-43
2022/02/27 06:33:57;;;;;;;5.37;2.80;;;-0.50;99.90;;;;;;5076175;28;20226;-46
2022/02/27 06:36:24;;;;;;;5.10;2.30;;;-0.50;99.90;;;;;;5093780;28;20220;-45
2022/02/27 06:38:52;;;;;;;4.27;2.77;;;-0.50;99.90;;;;;;5088771;28;20322;-43
2022/02/27 06:41:20;;;;;;;3.73;2.50;;;-0.40;99.90;;;;;;5093915;28;20247;-48
2022/02/27 06:43:47;;;;;;;4.57;2.23;;;-0.40;99.90;;;;;;5086300;28;20230;-45
2022/02/27 06:46:14;;;;;;;4.70;2.63;;;-0.40;99.90;;;;;;5103146;28;20201;-49
2022/02/27 06:48:41;;;;;;;6.17;2.53;;;-0.40;99.90;;;;;;5090094;28;20221;-44
2022/02/27 06:51:09;;;;;;;5.10;2.43;;;-0.40;99.90;;;;;;5099780;28;20217;-46
2022/02/27 06:53:36;;;;;;;5.30;2.63;;;-0.40;99.90;;;;;;5085652;28;20263;-43
2022/02/27 06:56:05;;;;;;;5.07;2.93;;;-0.40;99.90;;;;;;5090103;28;20212;-44
2022/02/27 06:58:32;;;;;;;4.93;2.47;;;-0.40;99.90;;;;;;5092584;28;20279;-47
2022/02/27 07:00:59;;;;;;;6.43;3.03;;;-0.30;99.90;;;;;;5091153;28;20440;-45
2022/02/27 07:03:26;;;;;;;5.93;2.90;;;-0.30;99.90;;;;;;5101854;27;20570;-43
2022/02/27 07:05:53;;;;;;;3.43;2.50;;;-0.20;99.90;;;;;;5088384;28;20898;-43
2022/02/27 07:08:20;;;;;;;4.07;2.70;;;-0.10;99.90;;;;;;5098756;28;20600;-43
2022/02/27 07:10:47;;;;;;;6.03;2.27;;;-0.10;99.90;;;;;;5088397;28;20230;-42
2022/02/27 07:13:15;;;;;;;5.67;2.93;;;0.00;99.90;;;;;;5090479;28;20212;-46
2022/02/27 07:15:42;;;;;;;4.67;2.40;;;0.00;99.90;;;;;;5101904;28;20205;-45
2022/02/27 07:18:09;;;;;;;5.67;2.73;;;0.10;99.90;;;;;;5100724;28;20903;-43
2022/02/27 07:20:36;;;;;;;7.07;2.80;;;0.10;99.90;;;;;;5090914;28;20240;-43
2022/02/27 07:23:03;;;;;;;6.63;2.67;;;0.20;99.90;;;;;;5095952;28;20231;-45
2022/02/27 07:25:29;;;;;;;4.73;2.43;;;0.30;99.90;;;;;;5091871;27;20212;-43
2022/02/27 07:27:56;;;;;;;6.60;2.63;;;0.30;99.90;;;;;;5097009;27;20190;-42
2022/02/27 07:30:24;;;;;;;3.90;2.50;;;0.40;99.90;;;;;;5096259;28;20339;-43
2022/02/27 07:32:51;;;;;;;3.67;2.90;;;0.50;99.90;;;;;;5096293;28;20206;-43
2022/02/27 07:35:18;;;;;;;5.13;2.47;;;0.50;99.90;;;;;;5087436;28;20203;-42
2022/02/27 07:37:45;;;;;;;5.93;2.70;;;0.60;99.90;;;;;;5101416;28;20203;-44
2022/02/27 07:40:13;;;;;;;4.27;2.97;;;0.70;99.90;;;;;;5096555;28;20220;-44
2022/02/27 07:42:39;;;;;;;8.97;2.87;;;0.80;99.90;;;;;;5090937;28;20207;-44
2022/02/27 07:45:07;;;;;;;6.63;2.37;;;0.90;99.90;;;;;;5085233;28;20222;-42
2022/02/27 07:47:35;;;;;;;5.23;3.30;;;1.00;99.90;;;;;;5103149;28;20192;-45
2022/02/27 07:50:02;;;;;;;5.90;2.77;;;1.00;99.90;;;;;;5086436;28;20314;-47
2022/02/27 07:52:28;;;;;;;4.33;3.20;;;1.10;99.90;;;;;;5094452;28;20201;-43
2022/02/27 07:54:55;;;;;;;7.13;3.03;;;1.20;99.90;;;;;;5073543;28;20200;-43
2022/02/27 07:57:22;;;;;;;4.20;3.33;;;1.30;99.90;;;;;;5091253;28;20211;-42
2022/02/27 07:59:49;;;;;;;9.13;3.60;;;1.30;99.90;;;;;;5085537;27;20808;-44
2022/02/27 08:02:16;;;;;;;6.97;2.53;;;1.50;99.90;;;;;;5099926;27;20200;-44
2022/02/27 08:04:44;;;;;;;5.33;2.90;;;1.60;99.90;;;;;;5090985;27;20213;-43
2022/02/27 08:07:11;;;;;;;5.30;3.27;;;1.60;99.90;;;;;;5092850;27;20307;-43
2022/02/27 08:09:37;;;;;;;5.43;3.30;;;1.70;99.90;;;;;;5102849;27;20617;-44
2022/02/27 08:12:05;;;;;;;7.73;3.23;;;1.80;99.90;;;;;;5090039;27;20196;-43
2022/02/27 08:14:32;;;;;;;6.23;3.20;;;1.90;99.90;;;;;;5093940;28;20213;-46
2022/02/27 08:16:59;;;;;;;4.83;2.80;;;1.90;99.90;;;;;;5076850;28;20235;-42
2022/02/27 08:19:26;;;;;;;3.40;2.83;;;2.00;99.90;;;;;;5100998;28;20216;-42
2022/02/27 08:21:54;;;;;;;6.77;3.67;;;2.10;99.90;;;;;;5088570;28;20562;-43
2022/02/27 08:24:21;;;;;;;8.37;3.50;;;2.20;99.90;;;;;;5101126;28;20235;-45
2022/02/27 08:26:49;;;;;;;7.10;3.33;;;2.30;99.90;;;;;;5093757;28;20185;-46
2022/02/27 08:29:16;;;;;;;9.90;3.43;;;2.30;99.90;;;;;;5095043;28;20212;-45
2022/02/27 08:31:45;;;;;;;7.90;3.70;;;2.40;99.90;;;;;;5086402;28;20697;-43
2022/02/27 08:34:12;;;;;;;5.90;3.23;;;2.50;99.90;;;;;;5095873;28;20246;-44
2022/02/27 08:36:39;;;;;;;5.47;3.00;;;2.60;99.90;;;;;;5082336;28;20573;-43
2022/02/27 08:39:08;;;;;;;6.20;3.37;;;2.70;99.90;;;;;;5094724;28;20629;-43
2022/02/27 08:41:35;;;;;;;8.63;3.53;;;2.70;99.90;;;;;;5095804;28;20251;-46
2022/02/27 08:44:02;;;;;;;4.63;3.30;;;2.90;99.90;;;;;;5086593;28;20217;-43
2022/02/27 08:46:29;;;;;;;6.67;3.53;;;2.90;99.90;;;;;;5090729;28;20198;-43
2022/02/27 08:48:55;;;;;;;7.40;3.70;;;3.00;99.90;;;;;;5102827;28;20668;-46
2022/02/27 08:51:22;;;;;;;6.03;3.30;;;3.10;99.90;;;;;;5096803;28;20631;-45
2022/02/27 08:53:52;;;;;;;7.90;3.27;;;3.20;99.90;;;;;;5086969;28;20205;-43
2022/02/27 08:56:20;;;;;;;7.17;3.33;;;3.30;99.90;;;;;;5100280;28;20224;-43
2022/02/27 08:58:47;;;;;;;5.50;2.70;;;3.40;99.90;;;;;;5094763;28;20205;-43
2022/02/27 09:01:14;;;;;;;4.47;3.10;;;3.60;99.90;;;;;;5088837;28;21079;-43
2022/02/27 09:03:41;;;;;;;6.23;3.27;;;3.70;99.90;;;;;;5098762;28;20221;-43
2022/02/27 09:06:08;;;;;;;6.20;3.23;;;3.80;99.90;;;;;;5094483;28;20224;-44
2022/02/27 09:08:37;;;;;;;6.00;3.70;;;3.80;99.90;;;;;;5083607;28;20209;-43
2022/02/27 09:11:04;;;;;;;5.00;3.67;;;3.90;99.90;;;;;;5099104;28;20214;-47
2022/02/27 09:13:32;;;;;;;5.57;3.03;;;3.90;99.90;;;;;;5092329;28;20514;-42
2022/02/27 09:15:59;;;;;;;5.80;2.90;;;4.00;99.90;;;;;;5097949;28;20208;-43
2022/02/27 09:18:26;;;;;;;8.63;3.30;;;4.00;99.90;;;;;;5095918;28;20189;-42
2022/02/27 09:20:53;;;;;;;6.90;3.30;;;4.10;99.90;;;;;;5101233;28;20282;-44
2022/02/27 09:23:20;;;;;;;8.20;3.57;;;4.20;99.90;;;;;;5083479;28;20212;-44
2022/02/27 09:25:47;;;;;;;7.17;3.27;;;4.30;99.90;;;;;;5103548;28;20243;-42
2022/02/27 09:28:14;;;;;;;6.53;3.57;;;4.40;99.90;;;;;;5099140;28;20197;-41
2022/02/27 09:30:42;;;;;;;5.67;2.93;;;4.50;99.90;;;;;;5094759;28;20297;-44
2022/02/27 09:33:09;;;;;;;5.73;3.40;;;4.50;99.90;;;;;;5088832;28;20211;-43
2022/02/27 09:35:36;;;;;;;5.00;2.87;;;4.60;99.90;;;;;;5101264;28;20196;-42
2022/02/27 09:38:03;;;;;;;6.97;3.00;;;4.60;99.90;;;;;;5100542;28;20232;-43
2022/02/27 09:40:30;;;;;;;3.80;2.70;;;4.80;99.90;;;;;;5088473;28;20209;-43
2022/02/27 09:42:58;;;;;;;4.93;2.77;;;4.90;99.90;;;;;;5102215;28;20697;-43
2022/02/27 09:45:26;;;;;;;4.17;2.97;;;5.00;99.90;;;;;;5092197;28;20328;-43
2022/02/27 09:47:57;;;;;;;6.30;3.00;;;5.00;99.90;;;;;;5090060;28;20542;-46
2022/02/27 09:50:25;;;;;;;7.47;4.03;;;5.10;99.90;;;;;;5100211;28;20244;-42
2022/02/27 09:52:53;;;;;;;5.73;2.87;;;5.20;99.90;;;;;;5103551;28;20197;-43
2022/02/27 09:55:20;;;;;;;5.13;2.87;;;5.20;99.90;;;;;;5086349;28;20448;-43
2022/02/27 09:57:47;;;;;;;7.90;3.13;;;5.20;99.90;;;;;;5102443;28;20197;-43
2022/02/27 10:00:16;;;;;;;4.13;3.03;;;5.40;99.90;;;;;;5090396;28;20232;-45
2022/02/27 10:03:08;;;;;;;6.10;3.13;;;5.40;99.90;;;;;;5103117;28;20561;-44
2022/02/27 10:05:35;;;;;;;5.27;3.00;;;5.50;99.90;;;;;;5100226;28;20388;-44
2022/02/27 10:08:06;;;;;;;4.43;3.30;;;5.60;99.90;;;;;;5100591;28;20201;-43
2022/02/27 10:10:34;;;;;;;8.93;3.50;;;5.60;99.90;;;;;;5086661;28;20778;-43
2022/02/27 10:13:01;;;;;;;5.50;2.70;;;5.70;99.90;;;;;;5100411;28;20202;-43
2022/02/27 10:15:28;;;;;;;5.97;3.07;;;5.80;99.90;;;;;;5101062;28;20209;-44
2022/02/27 10:17:55;;;;;;;7.17;2.80;;;5.90;99.90;;;;;;5093510;28;20193;-44
2022/02/27 10:20:25;;;;;;;5.63;3.07;;;5.90;99.90;;;;;;5089159;28;20231;-43
2022/02/27 10:22:54;;;;;;;7.30;2.80;;;5.90;99.90;;;;;;5107377;28;20749;-43
2022/02/27 10:25:23;;;;;;;4.40;2.77;;;6.00;99.90;;;;;;5103916;28;20288;-42
2022/02/27 10:27:53;;;;;;;6.20;3.17;;;6.00;99.90;;;;;;5087267;28;20213;-42
2022/02/27 10:30:22;;;;;;;7.37;3.00;;;6.00;99.90;;;;;;5101853;28;20213;-43
2022/02/27 10:32:53;;;;;;;4.53;2.60;;;6.10;99.90;;;;;;5098296;28;20208;-43
2022/02/27 10:35:42;;;;;;;5.57;2.73;;;6.10;99.90;;;;;;5094464;28;20284;-46
2022/02/27 10:38:10;;;;;;;7.83;3.20;;;6.20;99.90;;;;;;5103219;28;20216;-43
2022/02/27 10:40:40;;;;;;;4.03;2.83;;;6.20;99.90;;;;;;5105777;28;20583;-42
2022/02/27 10:43:08;;;;;;;4.13;2.83;;;6.30;99.90;;;;;;5090280;28;20698;-43
2022/02/27 10:45:36;;;;;;;3.73;2.40;;;6.30;99.90;;;;;;5095082;28;20240;-43
2022/02/27 10:48:06;;;;;;;4.33;2.23;;;6.40;99.90;;;;;;5095005;28;20205;-42
2022/02/27 10:50:34;;;;;;;4.70;3.23;;;6.50;99.90;;;;;;5091397;28;20253;-45
2022/02/27 10:53:02;;;;;;;6.87;2.40;;;6.50;99.90;;;;;;5088685;28;20197;-43
2022/02/27 10:55:32;;;;;;;5.93;2.60;;;6.60;99.90;;;;;;5098028;28;20182;-43
2022/02/27 10:58:00;;;;;;;2.70;2.33;;;6.70;99.90;;;;;;5090224;28;20213;-45
2022/02/27 11:00:28;;;;;;;6.23;2.80;;;6.80;99.90;;;;;;5094909;28;20205;-43
2022/02/27 11:02:57;;;;;;;3.83;2.57;;;6.80;99.90;;;;;;5091354;28;20218;-43
2022/02/27 11:05:26;;;;;;;9.67;3.20;;;6.80;99.90;;;;;;5096931;28;20267;-42
2022/02/27 11:07:56;;;;;;;7.33;3.40;;;6.90;99.90;;;;;;5084223;28;20573;-44
2022/02/27 11:10:25;;;;;;;6.83;2.97;;;7.00;99.90;;;;;;5097399;28;20217;-44
2022/02/27 11:12:53;;;;;;;7.90;3.03;;;7.00;99.90;;;;;;5096072;28;20196;-45
2022/02/27 11:15:23;;;;;;;4.63;2.73;;;7.00;99.90;;;;;;5083189;28;20235;-48
2022/02/27 11:17:50;;;;;;;6.53;2.20;;;7.10;99.90;;;;;;5092661;28;20205;-43
2022/02/27 11:20:20;;;;;;;2.50;2.10;;;7.00;99.90;;;;;;5097348;28;20977;-46
2022/02/27 11:22:47;;;;;;;4.87;2.23;;;7.10;99.90;;;;;;5090684;28;20198;-43
2022/02/27 11:25:14;;;;;;;3.10;2.03;;;7.10;99.90;;;;;;5087830;28;20208;-48
2022/02/27 11:27:47;;;;;;;3.57;2.40;;;7.10;99.90;;;;;;5092004;28;20203;-43
2022/02/27 11:30:14;;;;;;;5.33;2.37;;;7.10;99.90;;;;;;5082337;28;21399;-43
2022/02/27 11:32:53;;;;;;;5.87;2.33;;;7.20;99.90;;;;;;5099402;28;20290;-42
2022/02/27 11:35:50;;;;;;;4.30;2.23;;;7.30;99.90;;;;;;5092551;28;20198;-42
2022/02/27 11:38:19;;;;;;;3.90;1.80;;;7.40;99.90;;;;;;5088144;28;22761;-46
2022/02/27 11:40:50;;;;;;;5.00;1.90;;;7.30;99.90;;;;;;5087519;28;20221;-42
2022/02/27 11:43:36;;;;;;;5.00;1.90;;;7.40;99.90;;;;;;5098154;28;20208;-42
2022/02/27 11:46:03;;;;;;;4.73;2.10;;;7.40;99.90;;;;;;5079388;28;20232;-42
2022/02/27 11:48:57;;;;;;;3.37;2.07;;;7.40;99.90;;;;;;5089729;28;20209;-41
2022/02/27 11:51:44;;;;;;;4.80;1.80;;;7.50;99.90;;;;;;5097158;28;20228;-42
2022/02/27 11:54:14;;;;;;;2.43;1.97;;;7.50;99.90;;;;;;5085860;28;20282;-42
2022/02/27 11:56:43;;;;;;;4.67;1.80;;;7.60;99.90;;;;;;5095520;28;20201;-51
2022/02/27 11:59:14;;;;;;;6.13;2.20;;;7.60;99.90;;;;;;5089406;28;20196;-55
2022/02/27 12:01:56;;;;;;;3.03;1.83;;;7.60;99.90;;;;;;5085569;28;20312;-53
2022/02/27 12:04:25;;;;;;;2.50;1.37;;;7.70;99.90;;;;;;5089285;28;20271;-53
2022/02/27 12:07:02;;;;;;;2.87;1.30;;;7.70;99.90;;;;;;5098142;28;20197;-56
2022/02/27 12:09:59;;;;;;;4.27;1.77;;;7.70;99.90;;;;;;5095588;28;20216;-52
2022/02/27 12:12:56;;;;;;;3.60;1.57;;;7.80;99.90;;;;;;5086848;28;20209;-52
2022/02/27 12:15:33;;;;;;;3.93;1.80;;;7.80;99.90;;;;;;5095959;28;20324;-47
2022/02/27 12:18:03;;;;;;;3.77;1.60;;;7.90;99.90;;;;;;5100685;27;20568;-52
2022/02/27 12:20:58;;;;;;;2.30;1.70;;;8.00;99.90;;;;;;5089716;28;20228;-53
2022/02/27 12:23:47;;;;;;;2.07;1.30;;;7.90;99.90;;;;;;5095328;28;20202;-53
2022/02/27 12:26:47;;;;;;;2.30;1.80;;;8.00;99.90;;;;;;5080536;28;20335;-50
2022/02/27 12:29:33;;;;;;;7.80;2.60;;;8.10;99.90;;;;;;5094819;28;20193;-47
2022/02/27 12:32:12;;;;;;;2.33;1.60;;;8.20;99.90;;;;;;5080440;28;20698;-52
2022/02/27 12:34:41;;;;;;;2.63;1.20;;;8.10;99.90;;;;;;5099074;28;20568;-53
2022/02/27 12:37:08;;;;;;;3.70;1.67;;;8.10;99.90;;;;;;5083787;28;20205;-54
2022/02/27 12:39:38;;;;;;;2.83;1.93;;;8.20;99.90;;;;;;5094560;28;20212;-53
2022/02/27 12:42:07;;;;;;;3.03;1.50;;;8.20;99.90;;;;;;5085878;28;20197;-51
2022/02/27 12:44:36;;;;;;;3.27;2.00;;;8.20;99.90;;;;;;5092703;28;20212;-54
2022/02/27 12:47:05;;;;;;;2.97;1.80;;;8.20;99.90;;;;;;5085948;28;20677;-53
2022/02/27 12:52:25;;;;;;;4.23;1.63;;;8.30;99.90;;;;;;5091255;28;20277;-51
2022/02/27 12:54:54;;;;;;;3.60;1.60;;;8.30;99.90;;;;;;5100687;28;20193;-46
2022/02/27 12:57:20;;;;;;;5.27;1.87;;;8.30;99.90;;;;;;5088850;28;20571;-48
2022/02/27 12:59:49;;;;;;;4.17;1.80;;;8.40;99.90;;;;;;5092911;28;20245;-46
2022/02/27 13:02:18;;;;;;;2.83;1.63;;;8.40;99.90;;;;;;5097107;28;20193;-48
2022/02/27 13:04:47;;;;;;;2.23;1.60;;;8.40;99.90;;;;;;5080321;28;20209;-49